createdAt,value
2022-12-03T00:00:31.089Z,102030.09
2022-12-03T00:02:58.617Z,102028.38
2022-12-03T00:05:27.456Z,102031.06
2022-12-03T00:07:54.971Z,102023.91
2022-12-03T00:10:22.486Z,102021.47
2022-12-03T00:12:49.879Z,102012.63
2022-12-03T00:15:17.274Z,102021.38
2022-12-03T00:17:44.742Z,102021.47
2022-12-03T00:20:17.382Z,102016.25
2022-12-03T00:22:46.097Z,102018.81
2022-12-03T00:25:13.536Z,102017.84
2022-12-03T00:27:40.959Z,102015.28
2022-12-03T00:30:09.390Z,102017.09
2022-12-03T00:32:36.815Z,102018.91
2022-12-03T00:35:04.297Z,102018.91
2022-12-03T00:37:31.735Z,102015.28
2022-12-03T00:40:00.431Z,102016.25
2022-12-03T00:42:27.846Z,102013.59
2022-12-03T00:44:55.655Z,102007.53
2022-12-03T00:47:23.215Z,102005.59
2022-12-03T00:49:50.627Z,102009.09
2022-12-03T00:52:18.040Z,102009.22
2022-12-03T00:54:45.472Z,102017.94
2022-12-03T00:57:14.166Z,102013.59
2022-12-03T00:59:41.607Z,102017.31
2022-12-03T01:02:09.199Z,102014.53
2022-12-03T01:04:36.778Z,102012.84
2022-12-03T01:07:04.283Z,102009.22
2022-12-03T01:09:31.732Z,102017.19
2022-12-03T01:11:59.180Z,102016.34
2022-12-03T01:14:27.891Z,102015.50
2022-12-03T01:16:55.311Z,102012.84
2022-12-03T01:19:22.716Z,102014.75
2022-12-03T01:21:51.062Z,102011.13
2022-12-03T01:24:19.366Z,102013.78
2022-12-03T01:26:46.788Z,102014.53
2022-12-03T01:29:14.569Z,102012.09
2022-12-03T01:32:00.824Z,102008.69
2022-12-03T01:34:28.243Z,102011.34
2022-12-03T01:36:55.659Z,102006.88
2022-12-03T01:39:23.065Z,102008.56
2022-12-03T01:41:50.878Z,102011.25
2022-12-03T01:44:19.471Z,102015.72
2022-12-03T01:46:48.192Z,102011.13
2022-12-03T01:49:18.092Z,102011.34
2022-12-03T01:51:45.520Z,102004.09
2022-12-03T01:54:16.745Z,102004.09
2022-12-03T01:56:44.205Z,101997.09
2022-12-03T01:59:14.634Z,102006.00
2022-12-03T02:01:42.442Z,102006.22
2022-12-03T02:04:13.220Z,102004.31
2022-12-03T02:06:40.811Z,102000.69
2022-12-03T02:09:08.636Z,102001.44
2022-12-03T02:11:36.888Z,102006.88
2022-12-03T02:14:05.140Z,102002.59
2022-12-03T02:16:32.808Z,102003.34
2022-12-03T02:19:00.282Z,102005.16
2022-12-03T02:21:31.435Z,101999.00
2022-12-03T02:24:01.304Z,102003.56
2022-12-03T02:26:30.173Z,101999.00
2022-12-03T02:28:57.624Z,102002.59
2022-12-03T02:31:25.142Z,102007.94
2022-12-03T02:33:53.149Z,102003.56
2022-12-03T02:36:20.582Z,102001.03
2022-12-03T02:38:48.036Z,102004.44
2022-12-03T02:41:36.081Z,102001.88
2022-12-03T02:44:04.179Z,102005.06
2022-12-03T02:46:31.633Z,102002.41
2022-12-03T02:48:59.045Z,102002.41
2022-12-03T02:51:26.775Z,101998.91
2022-12-03T02:53:54.387Z,101997.28
2022-12-03T02:56:23.724Z,101999.84
2022-12-03T02:58:52.247Z,101993.69
2022-12-03T03:01:21.053Z,102002.50
2022-12-03T03:03:49.173Z,102000.69
2022-12-03T03:06:16.608Z,102006.13
2022-12-03T03:08:44.078Z,101999.84
2022-12-03T03:11:11.591Z,102000.69
2022-12-03T03:13:39.006Z,102003.25
2022-12-03T03:16:07.334Z,101990.91
2022-12-03T03:18:36.080Z,102000.69
2022-12-03T03:21:03.772Z,101993.34
2022-12-03T03:23:31.229Z,101994.31
2022-12-03T03:25:59.989Z,101992.59
2022-12-03T03:28:27.396Z,101988.25
2022-12-03T03:30:54.806Z,101987.38
2022-12-03T03:33:22.264Z,101989.94
2022-12-03T03:35:50.965Z,101983.03
2022-12-03T03:38:18.723Z,101988.34
2022-12-03T03:40:46.276Z,101986.22
2022-12-03T03:43:13.711Z,101985.25
2022-12-03T03:45:41.303Z,101974.06
2022-12-03T03:48:08.732Z,101977.47
2022-12-03T03:50:36.154Z,101976.72
2022-12-03T03:53:04.851Z,101975.78
2022-12-03T03:55:32.390Z,101966.06
2022-12-03T03:57:59.838Z,101973.22
2022-12-03T04:00:27.246Z,101961.50
2022-12-03T04:02:54.787Z,101962.47
2022-12-03T04:05:23.069Z,101967.16
2022-12-03T04:07:50.579Z,101954.69
2022-12-03T04:10:36.917Z,101960.84
2022-12-03T04:13:04.330Z,101958.19
2022-12-03T04:15:31.751Z,101947.44
2022-12-03T04:18:31.146Z,101949.34
2022-12-03T04:21:12.585Z,101947.66
2022-12-03T04:23:40.671Z,101949.34
2022-12-03T04:26:27.028Z,101952.88
2022-12-03T04:28:54.456Z,101949.34
2022-12-03T04:31:39.732Z,101948.19
2022-12-03T04:34:24.669Z,101949.56
2022-12-03T04:36:52.074Z,101942.31
2022-12-03T04:39:19.488Z,101946.69
2022-12-03T04:41:48.210Z,101944.03
2022-12-03T04:44:33.241Z,101946.69
2022-12-03T04:47:00.658Z,101947.66
2022-12-03T04:49:28.087Z,101953.75
2022-12-03T04:51:55.491Z,101944.88
2022-12-03T04:54:22.896Z,101942.44
2022-12-03T04:56:51.594Z,101939.66
2022-12-03T04:59:19.018Z,101939.66
2022-12-03T05:01:46.503Z,101937.75
2022-12-03T05:04:13.980Z,101936.88
2022-12-03T05:06:41.633Z,101941.28
2022-12-03T05:09:09.047Z,101935.50
2022-12-03T05:11:36.492Z,101935.19
2022-12-03T05:14:05.267Z,101929.28
2022-12-03T05:16:32.788Z,101932.06
2022-12-03T05:19:00.246Z,101931.84
2022-12-03T05:21:27.668Z,101924.06
2022-12-03T05:23:55.079Z,101923.75
2022-12-03T05:26:22.543Z,101922.03
2022-12-03T05:28:49.962Z,101914.94
2022-12-03T05:31:18.734Z,101923.88
2022-12-03T05:33:46.239Z,101924.69
2022-12-03T05:36:13.659Z,101923.97
2022-12-03T05:38:41.072Z,101922.91
2022-12-03T05:41:28.732Z,101926.31
2022-12-03T05:43:55.274Z,101916.72
2022-12-03T05:46:24.088Z,101920.34
2022-12-03T05:48:51.585Z,101923.03
2022-12-03T05:51:18.987Z,101921.31
2022-12-03T05:53:46.396Z,101922.28
2022-12-03T05:56:13.807Z,101919.47
2022-12-03T05:58:41.210Z,101921.31
2022-12-03T06:01:08.637Z,101913.94
2022-12-03T06:03:37.620Z,101914.06
2022-12-03T06:06:05.688Z,101908.00
2022-12-03T06:08:33.163Z,101921.31
2022-12-03T06:11:00.598Z,101915.03
2022-12-03T06:13:28.025Z,101928.44
2022-12-03T06:15:55.514Z,101914.06
2022-12-03T06:18:23.088Z,101921.84
2022-12-03T06:20:51.796Z,101921.09
2022-12-03T06:23:19.288Z,101920.25
2022-12-03T06:25:46.705Z,101921.19
2022-12-03T06:28:14.116Z,101921.25
2022-12-03T06:30:41.508Z,101922.09
2022-12-03T06:33:08.908Z,101927.50
2022-12-03T06:35:36.319Z,101926.78
2022-12-03T06:38:05.053Z,101926.78
2022-12-03T06:40:32.492Z,101919.72
2022-12-03T06:42:59.909Z,101923.47
2022-12-03T06:45:27.300Z,101921.44
2022-12-03T06:47:54.719Z,101919.94
2022-12-03T06:50:22.111Z,101911.94
2022-12-03T06:52:49.527Z,101916.44
2022-12-03T06:55:18.320Z,101919.00
2022-12-03T06:57:45.813Z,101914.50
2022-12-03T07:00:14.128Z,101918.16
2022-12-03T07:02:41.601Z,101906.63
2022-12-03T07:05:09.700Z,101911.44
2022-12-03T07:07:37.184Z,101911.88
2022-12-03T07:10:05.342Z,101905.72
2022-12-03T07:12:34.040Z,101912.09
2022-12-03T07:15:01.478Z,101918.25
2022-12-03T07:17:29.837Z,101916.53
2022-12-03T07:19:57.251Z,101923.47
2022-12-03T07:22:24.665Z,101915.38
2022-12-03T07:24:52.477Z,101918.88
2022-12-03T07:27:20.982Z,101918.88
2022-12-03T07:29:49.803Z,101918.16
2022-12-03T07:32:17.222Z,101917.19
2022-12-03T07:34:44.636Z,101924.22
2022-12-03T07:37:12.047Z,101918.44
2022-12-03T07:39:41.200Z,101920.47
2022-12-03T07:42:09.407Z,101921.19
2022-12-03T07:44:36.925Z,101919.28
2022-12-03T07:47:05.725Z,101915.88
2022-12-03T07:49:33.293Z,101917.91
2022-12-03T07:52:00.697Z,101916.50
2022-12-03T07:54:28.107Z,101906.06
2022-12-03T07:57:01.238Z,101916.81
2022-12-03T07:59:29.158Z,101910.44
2022-12-03T08:01:56.763Z,101910.53
2022-12-03T08:04:25.521Z,101915.97
2022-12-03T08:06:52.946Z,101905.22
2022-12-03T08:09:20.363Z,101906.94
2022-12-03T08:11:48.463Z,101904.38
2022-12-03T08:14:16.750Z,101901.50
2022-12-03T08:16:45.123Z,101903.91
2022-12-03T08:19:12.891Z,101897.13
2022-12-03T08:21:41.599Z,101891.78
2022-12-03T08:24:14.030Z,101897.00
2022-12-03T08:26:41.514Z,101893.94
2022-12-03T08:29:09.665Z,101890.53
2022-12-03T08:31:37.131Z,101892.22
2022-12-03T08:34:16.136Z,101881.56
2022-12-03T08:36:44.856Z,101891.38
2022-12-03T08:39:23.863Z,101891.38
2022-12-03T08:42:13.812Z,101894.88
2022-12-03T08:44:41.822Z,101886.25
2022-12-03T08:47:13.870Z,101896.69
2022-12-03T08:49:41.397Z,101893.94
2022-12-03T08:52:14.103Z,101892.47
2022-12-03T08:54:41.879Z,101886.16
2022-12-03T08:57:26.032Z,101891.38
2022-12-03T08:59:53.599Z,101894.16
2022-12-03T09:02:25.992Z,101888.81
2022-12-03T09:04:54.769Z,101893.19
2022-12-03T09:07:23.642Z,101885.22
2022-12-03T09:09:51.059Z,101894.03
2022-12-03T09:12:18.466Z,101885.22
2022-12-03T09:14:45.881Z,101889.44
2022-12-03T09:17:13.295Z,101890.31
2022-12-03T09:19:46.050Z,101879.25
2022-12-03T09:22:15.150Z,101881.81
2022-12-03T09:24:43.920Z,101881.56
2022-12-03T09:27:11.329Z,101878.63
2022-12-03T09:29:38.745Z,101868.41
2022-12-03T09:32:06.246Z,101880.34
2022-12-03T09:34:34.691Z,101871.72
2022-12-03T09:37:02.224Z,101875.22
2022-12-03T09:39:29.641Z,101872.97
2022-12-03T09:41:58.385Z,101872.78
2022-12-03T09:44:25.806Z,101871.59
2022-12-03T09:46:53.242Z,101866.34
2022-12-03T09:49:20.967Z,101863.38
2022-12-03T09:51:48.359Z,101866.03
2022-12-03T09:54:21.417Z,101859.66
2022-12-03T09:56:48.828Z,101859.88
2022-12-03T09:59:17.706Z,101855.84
2022-12-03T10:01:45.212Z,101857.78
2022-12-03T10:04:12.713Z,101855.97
2022-12-03T10:06:45.575Z,101857.88
2022-12-03T10:09:14.298Z,101847.34
2022-12-03T10:11:41.740Z,101842.53
2022-12-03T10:14:11.254Z,101845.78
2022-12-03T10:16:40.284Z,101844.38
2022-12-03T10:19:10.017Z,101837.25
2022-12-03T10:21:37.966Z,101841.59
2022-12-03T10:24:26.374Z,101850.78
2022-12-03T10:26:55.157Z,101840.88
2022-12-03T10:29:28.185Z,101834.59
2022-12-03T10:32:01.401Z,101840.66
2022-12-03T10:34:30.510Z,101831.47
2022-12-03T10:37:10.522Z,101828.69
2022-12-03T10:39:56.099Z,101823.16
2022-12-03T10:42:23.968Z,101824.47
2022-12-03T10:44:59.844Z,101827.34
2022-12-03T10:47:28.678Z,101831.06
2022-12-03T10:50:02.350Z,101834.06
2022-12-03T10:52:29.878Z,101830.44
2022-12-03T10:54:57.283Z,101823.22
2022-12-03T10:57:24.698Z,101830.00
2022-12-03T10:59:52.096Z,101826.59
2022-12-03T11:02:20.972Z,101821.38
2022-12-03T11:04:49.689Z,101827.66
2022-12-03T11:07:18.560Z,101830.44
2022-12-03T11:09:46.464Z,101820.53
2022-12-03T11:12:19.656Z,101824.06
2022-12-03T11:15:06.970Z,101811.78
2022-12-03T11:17:41.791Z,101808.50
2022-12-03T11:20:16.819Z,101810.00
2022-12-03T11:22:47.083Z,101801.38
2022-12-03T11:25:47.936Z,101800.41
2022-12-03T11:28:53.768Z,101799.09
2022-12-03T11:31:38.595Z,101792.63
2022-12-03T11:34:49.385Z,101797.84
2022-12-03T11:37:25.214Z,101789.13
2022-12-03T11:40:37.751Z,101792.53
2022-12-03T11:43:08.036Z,101789.75
2022-12-03T11:45:36.002Z,101784.53
2022-12-03T11:48:11.897Z,101785.16
2022-12-03T11:50:40.497Z,101782.50
2022-12-03T11:53:17.232Z,101781.88
2022-12-03T11:55:47.156Z,101774.00
2022-12-03T11:58:17.640Z,101782.97
2022-12-03T12:00:51.530Z,101789.34
2022-12-03T12:03:26.448Z,101781.97
2022-12-03T12:06:04.535Z,101782.97
2022-12-03T12:08:33.439Z,101784.13
2022-12-03T12:11:00.983Z,101789.25
2022-12-03T12:13:49.922Z,101791.06
2022-12-03T12:16:49.956Z,101784.22
2022-12-03T12:19:39.687Z,101778.81
2022-12-03T12:22:20.822Z,101775.50
2022-12-03T12:24:52.141Z,101774.78
2022-12-03T12:27:21.233Z,101773.84
2022-12-03T12:29:54.544Z,101769.56
2022-12-03T12:32:24.814Z,101769.56
2022-12-03T12:34:54.714Z,101764.03
2022-12-03T12:37:23.211Z,101765.94
2022-12-03T12:39:54.209Z,101773.94
2022-12-03T12:42:29.600Z,101760.53
2022-12-03T12:44:59.951Z,101761.34
2022-12-03T12:47:28.596Z,101765.84
2022-12-03T12:49:56.543Z,101753.47
2022-12-03T12:52:24.324Z,101751.91
2022-12-03T12:54:53.022Z,101756.34
2022-12-03T12:57:22.879Z,101745.72
2022-12-03T12:59:50.499Z,101744.03
2022-12-03T13:02:40.968Z,101743.16
2022-12-03T13:05:11.015Z,101739.03
2022-12-03T13:07:38.479Z,101734.44
2022-12-03T13:10:22.980Z,101734.44
2022-12-03T13:12:50.388Z,101728.06
2022-12-03T13:15:33.064Z,101726.97
2022-12-03T13:18:00.524Z,101726.97
2022-12-03T13:20:28.121Z,101722.38
2022-12-03T13:22:55.547Z,101723.25
2022-12-03T13:28:24.504Z,101713.75
2022-12-03T13:30:51.986Z,101711.09
2022-12-03T13:33:26.093Z,101721.63
2022-12-03T13:35:55.030Z,101724.19
2022-12-03T13:38:23.415Z,101720.78
2022-12-03T13:40:58.669Z,101722.63
2022-12-03T13:43:26.706Z,101716.53
2022-12-03T13:45:55.064Z,101719.19
2022-12-03T13:48:23.512Z,101718.25
2022-12-03T13:50:51.216Z,101718.47
2022-12-03T13:53:21.893Z,101712.06
2022-12-03T13:55:50.192Z,101718.47
2022-12-03T13:58:18.919Z,101715.69
2022-12-03T14:00:46.419Z,101721.84
2022-12-03T14:03:15.277Z,101721.34
2022-12-03T14:05:42.705Z,101712.72
2022-12-03T14:08:10.227Z,101717.00
2022-12-03T14:10:37.692Z,101722.31
2022-12-03T14:13:05.111Z,101685.78
2022-12-03T14:15:33.815Z,101684.06
2022-12-03T14:18:02.253Z,101699.78
2022-12-03T14:20:29.709Z,101697.22
2022-12-03T14:22:59.504Z,101697.22
2022-12-03T14:25:27.161Z,101707.88
2022-12-03T14:27:54.579Z,101699.25
2022-12-03T14:30:21.994Z,101699.47
2022-12-03T14:32:50.698Z,101696.31
2022-12-03T14:35:18.118Z,101693.84
2022-12-03T14:37:45.555Z,101698.97
2022-12-03T14:40:17.961Z,101692.81
2022-12-03T14:42:48.520Z,101713.13
2022-12-03T14:45:16.056Z,101693.66
2022-12-03T14:47:43.464Z,101722.81
2022-12-03T14:50:14.297Z,101713.00
2022-12-03T14:52:43.213Z,101714.38
2022-12-03T14:55:10.642Z,101713.19
2022-12-03T14:57:38.628Z,101715.66
2022-12-03T15:00:07.359Z,101715.75
2022-12-03T15:02:34.985Z,101721.81
2022-12-03T15:05:02.451Z,101719.16
2022-12-03T15:07:31.818Z,101718.41
2022-12-03T15:09:59.322Z,101717.44
2022-12-03T15:12:26.730Z,101720.09
2022-12-03T15:14:54.611Z,101720.19
2022-12-03T15:17:30.927Z,101727.34
2022-12-03T15:19:59.256Z,101721.81
2022-12-03T15:22:26.698Z,101721.91
2022-12-03T15:24:55.415Z,101727.88
2022-12-03T15:27:23.355Z,101729.78
2022-12-03T15:29:50.814Z,101733.19
2022-12-03T15:32:18.393Z,101728.19
2022-12-03T15:34:45.840Z,101725.19
2022-12-03T15:37:14.778Z,101726.41
2022-12-03T15:39:48.139Z,101732.00
2022-12-03T15:42:17.510Z,101725.09
2022-12-03T15:44:46.589Z,101726.91
2022-12-03T15:47:14.009Z,101725.94
2022-12-03T15:49:41.434Z,101718.94
2022-12-03T15:52:08.845Z,101715.06
2022-12-03T15:54:36.248Z,101723.28
2022-12-03T15:57:03.673Z,101717.31
2022-12-03T15:59:32.361Z,101720.81
2022-12-03T16:01:59.843Z,101712.72
2022-12-03T16:04:27.353Z,101711.06
2022-12-03T16:06:54.760Z,101705.84
2022-12-03T16:09:26.911Z,101710.44
2022-12-03T16:11:54.897Z,101716.59
2022-12-03T16:14:22.312Z,101709.22
2022-12-03T16:16:51.021Z,101717.44
2022-12-03T16:19:18.523Z,101711.88
2022-12-03T16:21:45.938Z,101704.63
2022-12-03T16:24:13.358Z,101705.72
2022-12-03T16:26:40.763Z,101708.16
2022-12-03T16:29:08.174Z,101706.34
2022-12-03T16:31:35.691Z,101696.88
2022-12-03T16:34:04.451Z,101701.25
2022-12-03T16:36:31.857Z,101706.56
2022-12-03T16:38:59.265Z,101705.72
2022-12-03T16:41:41.745Z,101704.84
2022-12-03T16:44:09.778Z,101701.25
2022-12-03T16:46:37.308Z,101698.81
2022-12-03T16:49:07.876Z,101703.19
2022-12-03T16:51:35.319Z,101704.22
2022-12-03T16:54:02.723Z,101708.81
2022-12-03T16:56:30.136Z,101707.78
2022-12-03T16:58:57.552Z,101705.22
2022-12-03T17:01:25.107Z,101708.00
2022-12-03T17:03:52.897Z,101702.78
2022-12-03T17:06:21.592Z,101702.78
2022-12-03T17:08:50.018Z,101703.56
2022-12-03T17:11:18.043Z,101694.59
2022-12-03T17:13:45.855Z,101699.81
2022-12-03T17:16:13.907Z,101691.72
2022-12-03T17:18:41.464Z,101699.59
2022-12-03T17:21:08.898Z,101690.19
2022-12-03T17:23:37.605Z,101698.06
2022-12-03T17:26:05.153Z,101691.03
2022-12-03T17:28:32.578Z,101689.53
2022-12-03T17:31:00.037Z,101689.75
2022-12-03T17:33:27.519Z,101693.03
2022-12-03T17:35:54.949Z,101685.91
2022-12-03T17:38:22.388Z,101692.31
2022-12-03T17:40:51.070Z,101693.03
2022-12-03T17:43:18.521Z,101680.56
2022-12-03T17:45:45.944Z,101684.94
2022-12-03T17:48:13.382Z,101684.94
2022-12-03T17:50:40.785Z,101680.06
2022-12-03T17:53:10.284Z,101689.88
2022-12-03T17:55:44.376Z,101687.41
2022-12-03T17:58:14.187Z,101682.31
2022-12-03T18:00:41.595Z,101672.88
2022-12-03T18:03:09.227Z,101678.09
2022-12-03T18:05:36.665Z,101680.75
2022-12-03T18:08:04.206Z,101684.34
2022-12-03T18:10:31.688Z,101681.38
2022-12-03T18:13:01.877Z,101685.09
2022-12-03T18:15:31.224Z,101682.31
2022-12-03T18:17:58.651Z,101681.16
2022-12-03T18:20:26.072Z,101685.50
2022-12-03T18:22:53.480Z,101685.84
2022-12-03T18:25:20.959Z,101691.31
2022-12-03T18:27:48.393Z,101695.69
2022-12-03T18:30:16.085Z,101687.50
2022-12-03T18:32:44.804Z,101685.78
2022-12-03T18:35:12.320Z,101685.06
2022-12-03T18:37:39.841Z,101684.22
2022-12-03T18:40:13.109Z,101686.97
2022-12-03T18:42:40.911Z,101689.66
2022-12-03T18:45:11.543Z,101687.81
2022-12-03T18:47:39.043Z,101685.06
2022-12-03T18:50:09.429Z,101681.56
2022-12-03T18:52:36.831Z,101679.50
2022-12-03T18:55:05.375Z,101678.00
2022-12-03T18:57:32.804Z,101681.78
2022-12-03T19:00:00.210Z,101682.50
2022-12-03T19:05:16.435Z,101676.97
2022-12-03T19:07:44.060Z,101681.78
2022-12-03T19:10:12.086Z,101677.28
2022-12-03T19:12:39.614Z,101679.94
2022-12-03T19:15:08.313Z,101681.66
2022-12-03T19:17:35.755Z,101680.78
2022-12-03T19:20:04.056Z,101687.94
2022-12-03T19:22:32.765Z,101681.16
2022-12-03T19:25:00.198Z,101681.38
2022-12-03T19:27:28.923Z,101680.75
2022-12-03T19:29:56.587Z,101685.09
2022-12-03T19:32:24.436Z,101684.75
2022-12-03T19:34:51.854Z,101687.75
2022-12-03T19:37:19.240Z,101686.19
2022-12-03T19:39:48.041Z,101697.78
2022-12-03T19:42:15.740Z,101700.22
2022-12-03T19:44:43.157Z,101687.75
2022-12-03T19:47:10.569Z,101690.81
2022-12-03T19:49:37.981Z,101691.09
2022-12-03T19:52:05.737Z,101693.66
2022-12-03T19:54:33.147Z,101692.31
2022-12-03T19:57:01.852Z,101689.88
2022-12-03T19:59:29.381Z,101690.19
2022-12-03T20:01:56.897Z,101684.06
2022-12-03T20:04:24.380Z,101692.06
2022-12-03T20:06:51.872Z,101688.97
2022-12-03T20:09:20.680Z,101690.66
2022-12-03T20:11:48.109Z,101683.41
2022-12-03T20:14:16.914Z,101683.53
2022-12-03T20:16:44.478Z,101679.75
2022-12-03T20:19:12.687Z,101687.53
2022-12-03T20:21:40.458Z,101683.81
2022-12-03T20:24:08.491Z,101688.50
2022-12-03T20:26:35.928Z,101688.25
2022-12-03T20:29:03.389Z,101682.22
2022-12-03T20:31:32.300Z,101688.16
2022-12-03T20:34:00.454Z,101688.16
2022-12-03T20:36:28.321Z,101686.47
2022-12-03T20:38:56.097Z,101687.31
2022-12-03T20:41:23.494Z,101692.63
2022-12-03T20:43:51.097Z,101692.63
2022-12-03T20:46:19.298Z,101691.78
2022-12-03T20:48:48.168Z,101693.38
2022-12-03T20:51:16.494Z,101691.69
2022-12-03T20:53:44.067Z,101685.59
2022-12-03T20:56:11.493Z,101685.59
2022-12-03T20:58:38.915Z,101680.28
2022-12-03T21:01:15.367Z,101683.69
2022-12-03T21:03:43.482Z,101678.00
2022-12-03T21:06:12.299Z,101686.00
2022-12-03T21:08:42.152Z,101679.22
2022-12-03T21:11:10.262Z,101684.19
2022-12-03T21:13:41.005Z,101689.53
2022-12-03T21:16:09.350Z,101690.38
2022-12-03T21:18:36.795Z,101677.28
2022-12-03T21:21:04.337Z,101681.03
2022-12-03T21:23:35.570Z,101679.31
2022-12-03T21:26:04.809Z,101676.44
2022-12-03T21:28:32.279Z,101678.88
2022-12-03T21:31:03.095Z,101678.38
2022-12-03T21:33:30.634Z,101670.25
2022-12-03T21:35:58.137Z,101665.78
2022-12-03T21:38:25.708Z,101664.69
2022-12-03T21:40:54.392Z,101664.81
2022-12-03T21:43:21.944Z,101663.63
2022-12-03T21:45:49.495Z,101659.97
2022-12-03T21:48:17.224Z,101659.03
2022-12-03T21:50:44.674Z,101657.09
2022-12-03T21:53:12.134Z,101658.91
2022-12-03T21:55:39.622Z,101664.47
2022-12-03T21:58:08.338Z,101656.09
2022-12-03T22:00:35.820Z,101659.59
2022-12-03T22:03:03.328Z,101656.81
2022-12-03T22:05:30.822Z,101660.34
2022-12-03T22:07:58.305Z,101663.63
2022-12-03T22:10:25.788Z,101656.59
2022-12-03T22:12:53.203Z,101667.25
2022-12-03T22:15:21.899Z,101667.13
2022-12-03T22:17:49.302Z,101666.06
2022-12-03T22:20:16.733Z,101671.41
2022-12-03T22:22:44.137Z,101662.41
2022-12-03T22:25:11.541Z,101659.53
2022-12-03T22:27:38.954Z,101663.25
2022-12-03T22:30:07.500Z,101665.09
2022-12-03T22:32:36.202Z,101649.94
2022-12-03T22:35:03.633Z,101646.56
2022-12-03T22:37:32.757Z,101653.25
2022-12-03T22:40:00.251Z,101644.28
2022-12-03T22:42:27.726Z,101652.16
2022-12-03T22:44:55.130Z,101648.75
2022-12-03T22:47:22.542Z,101641.63
2022-12-03T22:49:51.259Z,101639.94
2022-12-03T22:52:18.698Z,101642.59
2022-12-03T22:54:46.225Z,101638.84
2022-12-03T22:57:13.649Z,101639.78
2022-12-03T22:59:41.111Z,101633.28
2022-12-03T23:02:08.553Z,101639.22
2022-12-03T23:04:35.979Z,101635.72
2022-12-03T23:07:05.949Z,101640.06
2022-12-03T23:09:33.374Z,101630.28
2022-12-03T23:12:00.785Z,101632.19
2022-12-03T23:14:28.187Z,101631.56
2022-12-03T23:16:55.602Z,101625.41
2022-12-03T23:19:23.010Z,101622.25
2022-12-03T23:21:50.468Z,101623.94
2022-12-03T23:24:19.183Z,101621.50
2022-12-03T23:26:46.594Z,101619.06
2022-12-03T23:29:14.009Z,101621.00
2022-12-03T23:31:41.454Z,101623.56
2022-12-03T23:34:08.982Z,101605.75
2022-12-03T23:36:36.409Z,101605.81
2022-12-03T23:39:03.903Z,101614.53
2022-12-03T23:41:32.645Z,101607.97
2022-12-03T23:44:00.089Z,101609.31
2022-12-03T23:46:27.718Z,101610.16
2022-12-03T23:48:55.256Z,101610.88
2022-12-03T23:51:24.211Z,101615.59
2022-12-03T23:53:52.684Z,101612.81
2022-12-03T23:56:22.685Z,101611.13
2022-12-03T23:58:51.520Z,101600.47
